KOBE/OBE METAR and TAF weather

Enter ICAO airport designator
Station Type Date Time Source
KOBE METAR 2022/01/29 12:55 UTC NOAA

KOBE 291255Z AUTO 32009G14KT 10SM CLR 06/M03 A3013 RMK AO2


Station Type Date Time Source
KOBE Decoded METAR 2022/01/29 12:55 UTC NOAA

Okeechobee County Airport, FL, United States (KOBE) 27-15-60N 080-51-02W
Jan 29, 2022 - 07:55 AM EST / 2022.01.29 1255 UTC
Wind: from the NW (320 degrees) at 10 MPH (9 KT) gusting to 16 MPH (14 KT):0
Visibility: 10 mile(s):0
Sky conditions: clear
Temperature: 42 F (6 C)
Dew Point: 26 F (-3 C)
Relative Humidity: 52%
Pressure (altimeter): 30.13 in. Hg (1020 hPa)
ob: KOBE 291255Z AUTO 32009G14KT 10SM CLR 06/M03 A3013 RMK AO2
cycle: 13

Station Type Date Time Source
KOBE TAF UTC NOAA

Error!

Example: see airport list